< < Back
Terminal Aerodrome Forecast


Current Version              Previous Versions:   1  2  3  4  5  6  7  8  9  

Terminal Aerodrome Forecast

419
FTUS42 KTAE 291700
TAFABY
TAF
KABY 291726Z 2918/3018 VRB05KT P6SM SCT050 SCT250
     FM292000 16008KT P6SM VCTS BKN050CB
      TEMPO 2920/2924 VRB15G25KT 4SM TSRA BKN025CB OVC040
     FM300200 VRB04KT P6SM FEW040 BKN250
     FM301500 17006KT P6SM BKN050=



Latest METAR

736
SAUS70 KWBC 301200 RRN
MTRABY
METAR KABY 301153Z 00000KT 7SM OVC002 24/23 A3015 RMK AO2 SLP206
T02390233 10250 20233 53011


USA.gov is the U.S. government's official web portal to all federal, state and local government web resources and services.